Time;durP1;ratioP1;P1;durP2;ratioP2;P2;SDS_P1;SDS_P2;PMS_P1;PMS_P2;Temp;Humidity;BMP_temperature;BMP_pressure;BME280_temperature;BME280_humidity;BME280_pressure;Samples;Min_cycle;Max_cycle;Signal;HPM_P1;HPM_P2
2022/06/29 00:00:18;;;;;;;6.57;3.45;;;16.00;99.90;;;;;;5048293;28;20048;-73
2022/06/29 00:02:46;;;;;;;6.45;2.75;;;16.00;99.90;;;;;;5064599;28;20048;-74
2022/06/29 00:05:17;;;;;;;5.72;3.38;;;15.90;99.90;;;;;;5064633;28;20130;-74
2022/06/29 00:07:44;;;;;;;3.63;2.78;;;15.90;99.90;;;;;;5067543;28;20044;-73
2022/06/29 00:10:11;;;;;;;4.50;3.00;;;15.80;99.90;;;;;;5066860;28;20033;-74
2022/06/29 00:12:38;;;;;;;3.40;2.90;;;15.70;99.90;;;;;;5064849;28;20040;-74
2022/06/29 00:15:05;;;;;;;5.97;2.60;;;15.60;99.90;;;;;;5050697;28;20114;-74
2022/06/29 00:17:32;;;;;;;5.28;2.53;;;15.50;99.90;;;;;;5063601;28;20507;-75
2022/06/29 00:19:59;;;;;;;3.47;2.75;;;15.40;99.90;;;;;;5050180;28;20048;-74
2022/06/29 00:22:24;;;;;;;5.43;2.47;;;15.40;99.90;;;;;;5034256;28;20440;-75
2022/06/29 00:24:50;;;;;;;5.00;3.05;;;15.30;99.90;;;;;;5064771;28;20028;-74
2022/06/29 00:27:16;;;;;;;2.90;2.63;;;15.30;99.90;;;;;;5049001;28;20117;-74
2022/06/29 00:29:43;;;;;;;2.88;2.60;;;15.30;99.90;;;;;;5049811;28;20067;-74
2022/06/29 00:32:09;;;;;;;4.38;3.22;;;15.30;99.90;;;;;;5061777;28;20079;-74
2022/06/29 00:34:35;;;;;;;3.28;2.95;;;15.30;99.90;;;;;;5047368;28;20045;-74
2022/06/29 00:37:01;;;;;;;3.47;3.17;;;15.30;99.90;;;;;;5032532;28;20049;-74
2022/06/29 00:39:27;;;;;;;4.82;3.00;;;15.20;99.90;;;;;;5030285;28;20048;-74
2022/06/29 00:41:53;;;;;;;5.47;2.90;;;15.20;99.90;;;;;;5046798;28;20629;-74
2022/06/29 00:44:20;;;;;;;7.47;3.30;;;15.20;99.90;;;;;;5066279;28;20063;-74
2022/06/29 00:46:51;;;;;;;4.15;3.72;;;15.20;99.90;;;;;;5063612;28;20045;-74
2022/06/29 00:49:19;;;;;;;6.43;3.63;;;15.20;99.90;;;;;;5050749;28;20120;-74
2022/06/29 00:52:05;;;;;;;4.00;3.42;;;15.10;99.90;;;;;;5049243;28;20040;-75
2022/06/29 00:54:36;;;;;;;5.55;4.65;;;15.10;99.90;;;;;;5052022;28;20544;-74
2022/06/29 00:57:06;;;;;;;4.85;4.15;;;15.20;99.90;;;;;;5065778;28;20055;-74
2022/06/29 00:59:39;;;;;;;5.32;4.82;;;15.10;99.90;;;;;;5062636;28;20049;-74
2022/06/29 01:02:06;;;;;;;8.13;4.50;;;15.10;99.90;;;;;;5048943;28;20060;-74
2022/06/29 01:04:31;;;;;;;6.30;4.57;;;15.10;99.90;;;;;;5046880;28;20590;-74
2022/06/29 01:06:57;;;;;;;4.90;4.50;;;15.10;99.90;;;;;;5064896;28;20048;-75
2022/06/29 01:09:23;;;;;;;7.60;5.30;;;15.10;99.90;;;;;;5062726;28;21384;-75
2022/06/29 01:11:49;;;;;;;5.90;5.38;;;15.10;99.90;;;;;;5048035;28;20065;-75
2022/06/29 01:14:15;;;;;;;6.38;5.47;;;15.10;99.90;;;;;;5029111;28;20060;-75
2022/06/29 01:16:41;;;;;;;6.03;5.43;;;15.00;99.90;;;;;;5060699;28;20080;-74
2022/06/29 01:19:07;;;;;;;5.93;5.28;;;15.00;99.90;;;;;;5048499;28;20517;-75
2022/06/29 01:21:35;;;;;;;8.52;5.60;;;15.00;99.90;;;;;;5046524;28;20049;-75
2022/06/29 01:24:02;;;;;;;6.13;5.43;;;15.00;99.90;;;;;;5065449;28;20052;-74
2022/06/29 01:26:28;;;;;;;7.15;5.82;;;15.00;99.90;;;;;;5062571;28;20074;-75
2022/06/29 01:28:53;;;;;;;6.18;5.40;;;15.00;99.90;;;;;;5046414;28;20041;-76
2022/06/29 01:31:20;;;;;;;6.93;5.55;;;15.00;99.90;;;;;;5063339;28;20057;-74
2022/06/29 01:33:47;;;;;;;7.18;5.85;;;15.00;99.90;;;;;;5067146;28;20748;-74
2022/06/29 01:36:15;;;;;;;7.72;5.90;;;15.10;99.90;;;;;;5065096;28;20056;-74
2022/06/29 01:38:41;;;;;;;13.13;7.03;;;15.10;99.90;;;;;;5064462;28;20480;-74
2022/06/29 01:41:10;;;;;;;6.60;5.93;;;15.00;99.90;;;;;;5061064;28;20055;-74
2022/06/29 01:43:37;;;;;;;9.15;5.93;;;15.00;99.90;;;;;;5062410;28;20044;-73
2022/06/29 01:46:02;;;;;;;7.10;6.40;;;15.00;99.90;;;;;;5062082;28;20048;-73
2022/06/29 01:48:28;;;;;;;7.65;6.28;;;15.00;99.90;;;;;;5047366;28;20087;-73
2022/06/29 01:50:54;;;;;;;7.85;6.97;;;15.00;99.90;;;;;;5042704;28;20747;-73
2022/06/29 01:53:20;;;;;;;8.48;6.55;;;14.90;99.90;;;;;;5064483;28;20051;-74
2022/06/29 01:55:47;;;;;;;6.53;6.03;;;14.90;99.90;;;;;;5050339;28;20051;-73
2022/06/29 01:58:13;;;;;;;7.40;6.70;;;14.90;99.90;;;;;;5063673;28;20056;-74
2022/06/29 02:00:39;;;;;;;7.55;6.72;;;14.90;99.90;;;;;;5060326;28;20053;-73
2022/06/29 02:03:05;;;;;;;7.60;6.88;;;14.90;99.90;;;;;;5047664;28;20060;-73
2022/06/29 02:05:31;;;;;;;7.78;6.97;;;14.90;99.90;;;;;;5049219;28;20650;-73
2022/06/29 02:07:57;;;;;;;7.80;7.10;;;14.80;99.90;;;;;;5066374;28;20087;-73
2022/06/29 02:10:22;;;;;;;8.10;7.32;;;14.90;99.90;;;;;;5046045;28;20054;-74
2022/06/29 02:12:48;;;;;;;7.72;6.97;;;14.80;99.90;;;;;;5038163;28;20044;-74
2022/06/29 02:15:14;;;;;;;9.48;7.38;;;14.80;99.90;;;;;;5036348;28;20047;-73
2022/06/29 02:17:40;;;;;;;8.55;7.65;;;14.80;99.90;;;;;;5058702;28;20041;-73
2022/06/29 02:20:07;;;;;;;10.70;7.25;;;14.80;99.90;;;;;;5063141;28;20594;-74
2022/06/29 02:22:32;;;;;;;13.35;7.70;;;14.80;99.90;;;;;;5066904;28;20733;-73
2022/06/29 02:24:58;;;;;;;8.32;7.50;;;14.80;99.90;;;;;;5040504;28;20067;-75
2022/06/29 02:27:24;;;;;;;8.52;7.63;;;14.80;99.90;;;;;;5068939;28;20044;-75
2022/06/29 02:29:49;;;;;;;8.45;7.18;;;14.80;99.90;;;;;;5041862;28;20825;-74
2022/06/29 02:34:59;;;;;;;8.38;7.68;;;14.70;99.90;;;;;;5068829;28;20049;-74
2022/06/29 02:37:25;;;;;;;8.55;7.65;;;14.80;99.90;;;;;;5068790;28;20045;-74
2022/06/29 02:39:51;;;;;;;8.52;7.63;;;14.80;99.90;;;;;;5069010;28;20400;-74
2022/06/29 02:42:16;;;;;;;9.70;8.43;;;14.80;99.90;;;;;;5052765;28;20044;-74
2022/06/29 02:44:43;;;;;;;8.95;8.05;;;14.80;99.90;;;;;;5051045;28;20083;-74
2022/06/29 02:47:09;;;;;;;10.30;7.90;;;14.80;99.90;;;;;;5065577;28;20490;-74
2022/06/29 02:49:35;;;;;;;8.15;6.90;;;14.80;99.90;;;;;;5068748;28;20055;-73
2022/06/29 02:52:02;;;;;;;7.80;7.03;;;14.70;99.90;;;;;;5051292;28;20063;-74
2022/06/29 02:54:27;;;;;;;9.77;7.63;;;14.70;99.90;;;;;;5048682;28;20059;-74
2022/06/29 02:56:53;;;;;;;9.90;7.35;;;14.70;99.90;;;;;;5051452;28;20104;-73
2022/06/29 02:59:20;;;;;;;9.30;7.65;;;14.70;99.90;;;;;;5047658;28;20098;-74
2022/06/29 03:01:46;;;;;;;10.57;7.70;;;14.60;99.90;;;;;;5070022;28;20041;-75
2022/06/29 03:04:12;;;;;;;10.18;7.38;;;14.60;99.90;;;;;;5034439;28;20103;-74
2022/06/29 03:06:37;;;;;;;7.45;6.75;;;14.60;99.90;;;;;;5051078;28;20492;-74
2022/06/29 03:09:03;;;;;;;7.90;7.10;;;14.50;99.90;;;;;;5067444;28;20056;-76
2022/06/29 03:11:29;;;;;;;8.85;7.90;;;14.50;99.90;;;;;;5067615;28;20054;-74
2022/06/29 03:13:55;;;;;;;9.85;7.47;;;14.50;99.90;;;;;;5053300;28;20037;-74
2022/06/29 03:16:21;;;;;;;8.82;7.93;;;14.50;99.90;;;;;;5065713;28;20724;-74
2022/06/29 03:18:47;;;;;;;10.90;7.90;;;14.50;99.90;;;;;;5049639;28;20060;-73
2022/06/29 03:21:12;;;;;;;9.73;7.88;;;14.50;99.90;;;;;;5046774;28;20071;-73
2022/06/29 03:23:38;;;;;;;8.88;8.02;;;14.50;99.90;;;;;;5064514;28;20037;-74
2022/06/29 03:26:04;;;;;;;9.10;8.10;;;14.50;99.90;;;;;;5066042;28;20037;-73
2022/06/29 03:28:30;;;;;;;9.57;7.15;;;14.50;99.90;;;;;;5065997;28;20094;-74
2022/06/29 03:30:55;;;;;;;8.52;7.72;;;14.40;99.90;;;;;;5067195;28;20072;-75
2022/06/29 03:33:24;;;;;;;10.50;8.20;;;14.40;99.90;;;;;;5023555;28;20040;-75
2022/06/29 03:35:49;;;;;;;10.48;8.38;;;14.40;99.90;;;;;;5063943;28;20060;-74
2022/06/29 03:38:15;;;;;;;10.45;9.30;;;14.40;99.90;;;;;;5016573;28;20055;-74
2022/06/29 03:40:41;;;;;;;11.82;8.65;;;14.40;99.90;;;;;;5049334;28;20510;-74
2022/06/29 03:43:07;;;;;;;9.68;8.68;;;14.40;99.90;;;;;;5067334;28;20052;-74
2022/06/29 03:45:32;;;;;;;10.93;9.77;;;14.30;99.90;;;;;;5041657;28;20044;-75
2022/06/29 03:47:58;;;;;;;11.55;9.40;;;14.30;99.90;;;;;;5048880;28;20052;-75
2022/06/29 03:50:24;;;;;;;11.43;8.85;;;14.40;99.90;;;;;;5033362;28;20518;-76
2022/06/29 03:52:49;;;;;;;11.10;9.00;;;14.50;99.90;;;;;;5065491;28;20120;-75
2022/06/29 03:55:16;;;;;;;10.32;9.43;;;14.50;99.90;;;;;;5066010;28;20037;-75
2022/06/29 03:57:42;;;;;;;11.30;10.10;;;14.50;99.90;;;;;;5048505;28;20713;-75
2022/06/29 04:00:09;;;;;;;10.95;9.80;;;14.50;99.90;;;;;;5048510;28;20079;-74
2022/06/29 04:02:36;;;;;;;11.13;9.70;;;14.50;99.90;;;;;;5065990;28;20037;-74
2022/06/29 04:05:04;;;;;;;11.15;9.93;;;14.50;99.90;;;;;;5050340;28;20052;-74
2022/06/29 04:07:31;;;;;;;10.95;9.95;;;14.50;99.90;;;;;;5046307;28;20072;-75
2022/06/29 04:09:59;;;;;;;11.60;9.70;;;14.40;99.90;;;;;;5065692;28;20112;-73
2022/06/29 04:12:33;;;;;;;11.57;10.02;;;14.40;99.90;;;;;;5048007;28;20045;-75
2022/06/29 04:14:59;;;;;;;10.80;9.80;;;14.40;99.90;;;;;;5047226;28;20048;-75
2022/06/29 04:17:25;;;;;;;11.52;10.30;;;14.40;99.90;;;;;;5065905;28;20059;-75
2022/06/29 04:19:51;;;;;;;10.93;9.75;;;14.40;99.90;;;;;;5049732;28;20843;-72
2022/06/29 04:22:18;;;;;;;11.68;9.93;;;14.40;99.90;;;;;;5063484;28;20103;-74
2022/06/29 04:24:44;;;;;;;12.38;10.88;;;14.40;99.90;;;;;;5046319;28;20044;-74
2022/06/29 04:27:10;;;;;;;11.13;9.88;;;14.40;99.90;;;;;;5066563;28;20449;-74
2022/06/29 04:29:36;;;;;;;13.38;10.90;;;14.40;99.90;;;;;;5065948;28;20120;-76
2022/06/29 04:32:03;;;;;;;11.77;10.57;;;14.40;99.90;;;;;;5023034;28;20594;-75
2022/06/29 04:34:28;;;;;;;12.40;10.77;;;14.40;99.90;;;;;;5047466;28;20057;-74
2022/06/29 04:36:54;;;;;;;12.68;11.32;;;14.40;99.90;;;;;;5063502;28;20637;-75
2022/06/29 04:39:20;;;;;;;12.65;11.45;;;14.50;99.90;;;;;;5046789;28;20045;-75
2022/06/29 04:41:46;;;;;;;12.73;11.10;;;14.50;99.90;;;;;;5048928;28;20090;-74
2022/06/29 04:44:11;;;;;;;14.25;10.88;;;14.50;99.90;;;;;;5045865;28;20098;-74
2022/06/29 04:46:37;;;;;;;12.23;11.02;;;14.60;99.90;;;;;;5036707;28;20052;-74
2022/06/29 04:49:03;;;;;;;12.73;11.38;;;14.60;99.90;;;;;;5065254;28;20055;-74
2022/06/29 04:51:31;;;;;;;11.73;10.02;;;14.70;99.90;;;;;;5065527;28;20056;-75
2022/06/29 04:53:58;;;;;;;13.32;11.77;;;14.70;99.90;;;;;;5064292;28;20098;-74
2022/06/29 04:56:29;;;;;;;12.40;11.20;;;14.80;99.90;;;;;;5065359;28;20091;-75
2022/06/29 04:58:57;;;;;;;12.20;10.93;;;14.90;99.90;;;;;;5047671;28;20032;-74
2022/06/29 05:01:24;;;;;;;12.75;11.55;;;14.90;99.90;;;;;;5050489;28;20043;-74
2022/06/29 05:03:51;;;;;;;13.85;10.60;;;15.00;99.90;;;;;;5047157;28;20057;-74
2022/06/29 05:06:18;;;;;;;13.68;11.48;;;15.00;99.90;;;;;;5064912;28;20075;-74
2022/06/29 05:08:44;;;;;;;13.77;10.93;;;15.10;99.90;;;;;;5063639;28;20037;-75
2022/06/29 05:11:13;;;;;;;12.13;11.02;;;15.10;99.90;;;;;;5064072;28;20069;-74
2022/06/29 05:13:42;;;;;;;12.60;11.27;;;15.10;99.90;;;;;;5049262;28;20044;-74
2022/06/29 05:16:08;;;;;;;11.63;10.52;;;15.20;99.90;;;;;;5048785;28;20037;-74
2022/06/29 05:18:35;;;;;;;11.95;10.77;;;15.20;99.90;;;;;;5062870;28;20040;-79
2022/06/29 05:21:01;;;;;;;12.13;11.02;;;15.30;99.90;;;;;;5063943;28;20044;-76
2022/06/29 05:23:29;;;;;;;14.00;11.70;;;15.30;99.90;;;;;;5063764;28;20568;-73
2022/06/29 05:25:55;;;;;;;13.27;11.82;;;15.30;99.90;;;;;;5037758;28;20064;-74
2022/06/29 05:28:21;;;;;;;13.23;11.90;;;15.40;99.90;;;;;;5059358;28;20046;-71
2022/06/29 05:30:46;;;;;;;13.75;10.68;;;15.40;99.90;;;;;;5047109;28;20084;-73
2022/06/29 05:33:12;;;;;;;11.93;10.80;;;15.40;99.90;;;;;;5071058;28;20494;-72
2022/06/29 05:35:38;;;;;;;12.07;10.98;;;15.40;99.90;;;;;;5038744;28;20048;-72
2022/06/29 05:38:04;;;;;;;12.45;11.15;;;15.40;99.90;;;;;;5071402;28;20048;-72
2022/06/29 05:40:30;;;;;;;13.95;11.35;;;15.50;99.90;;;;;;5054671;28;20225;-72
2022/06/29 05:42:57;;;;;;;12.55;11.30;;;15.50;99.90;;;;;;5066040;28;20681;-71
2022/06/29 05:45:24;;;;;;;12.38;11.27;;;15.60;99.90;;;;;;5072062;28;20142;-75
2022/06/29 05:47:52;;;;;;;12.85;11.60;;;15.70;99.90;;;;;;5046526;28;20040;-76
2022/06/29 05:50:18;;;;;;;12.48;11.18;;;15.90;99.90;;;;;;5069081;28;20094;-75
2022/06/29 05:52:44;;;;;;;10.90;9.88;;;16.10;99.90;;;;;;5041337;28;20040;-75
2022/06/29 05:55:10;;;;;;;11.25;10.25;;;16.20;99.90;;;;;;5048833;28;20106;-75
2022/06/29 05:57:36;;;;;;;12.77;10.00;;;16.40;99.90;;;;;;5065558;28;20052;-75
2022/06/29 06:00:04;;;;;;;11.20;10.10;;;16.60;99.90;;;;;;5066748;28;20051;-76
2022/06/29 06:02:29;;;;;;;10.95;9.90;;;16.80;99.90;;;;;;5066214;28;20095;-76
2022/06/29 06:04:55;;;;;;;10.50;9.43;;;17.00;99.90;;;;;;5051910;28;20072;-75
2022/06/29 06:07:21;;;;;;;10.27;9.13;;;17.20;99.90;;;;;;5064138;28;20092;-76
2022/06/29 06:09:46;;;;;;;9.82;8.43;;;17.40;99.90;;;;;;5047642;28;20109;-76
2022/06/29 06:12:12;;;;;;;12.88;8.68;;;17.60;99.90;;;;;;5048481;28;20059;-76
2022/06/29 06:14:38;;;;;;;9.30;8.40;;;17.80;99.90;;;;;;5062010;28;20136;-76
2022/06/29 06:17:04;;;;;;;8.57;7.78;;;18.00;99.90;;;;;;5046883;28;20076;-76
2022/06/29 06:19:30;;;;;;;10.43;9.35;;;18.20;99.90;;;;;;5067119;28;20362;-75
2022/06/29 06:21:56;;;;;;;9.25;8.35;;;18.40;99.90;;;;;;5046633;28;20041;-76
2022/06/29 06:24:21;;;;;;;8.80;8.00;;;18.60;99.90;;;;;;5033124;28;21382;-76
2022/06/29 06:26:47;;;;;;;8.77;7.47;;;18.80;99.90;;;;;;5069470;28;20537;-79
2022/06/29 06:29:13;;;;;;;8.50;7.68;;;18.90;99.90;;;;;;5035084;28;20040;-76
2022/06/29 06:31:38;;;;;;;8.10;7.30;;;19.10;99.90;;;;;;5049400;28;20064;-77
2022/06/29 06:34:04;;;;;;;7.75;7.07;;;19.20;99.90;;;;;;5051047;28;20048;-76
2022/06/29 06:36:30;;;;;;;7.78;7.00;;;19.40;99.90;;;;;;5061911;28;20496;-76
2022/06/29 06:38:56;;;;;;;9.25;6.65;;;19.50;99.90;;;;;;5066566;28;20043;-76
2022/06/29 06:41:21;;;;;;;7.82;6.85;;;19.60;99.90;;;;;;5067038;28;20049;-76
2022/06/29 06:43:55;;;;;;;7.30;6.53;;;19.80;99.90;;;;;;5068821;28;20037;-76
2022/06/29 06:46:22;;;;;;;9.48;6.55;;;19.90;99.90;;;;;;5065321;28;20075;-76
2022/06/29 06:48:50;;;;;;;7.63;6.53;;;20.00;99.90;;;;;;5034726;28;20107;-76
2022/06/29 06:51:17;;;;;;;7.32;6.63;;;20.20;99.90;;;;;;5062763;28;20124;-76
2022/06/29 06:53:43;;;;;;;6.22;5.30;;;20.30;99.90;;;;;;5066872;28;20492;-76
2022/06/29 06:56:09;;;;;;;7.25;5.28;;;20.40;99.90;;;;;;5066017;28;20048;-76
2022/06/29 06:58:38;;;;;;;8.55;5.60;;;20.60;99.90;;;;;;5050988;28;20047;-76
2022/06/29 07:01:08;;;;;;;5.20;4.70;;;20.70;99.90;;;;;;5068625;28;20049;-78
2022/06/29 07:03:37;;;;;;;6.50;5.13;;;20.90;99.90;;;;;;5069166;28;20040;-75
2022/06/29 07:06:09;;;;;;;5.72;4.25;;;20.90;99.90;;;;;;5045317;28;20079;-76
2022/06/29 07:08:35;;;;;;;5.95;4.15;;;21.10;99.90;;;;;;5061888;28;20068;-77
2022/06/29 07:11:02;;;;;;;5.38;4.10;;;21.20;99.90;;;;;;5060199;28;20049;-81
2022/06/29 07:13:28;;;;;;;4.68;3.70;;;21.30;99.90;;;;;;5041963;28;21101;-78
2022/06/29 07:15:54;;;;;;;5.10;3.95;;;21.40;99.90;;;;;;5064225;28;20040;-77
2022/06/29 07:18:21;;;;;;;4.78;3.53;;;21.50;99.90;;;;;;5058861;28;20094;-76
2022/06/29 07:20:48;;;;;;;5.82;3.85;;;21.60;99.90;;;;;;5060821;28;20155;-76
2022/06/29 07:23:13;;;;;;;5.13;4.10;;;21.80;99.90;;;;;;5047548;28;20075;-76
2022/06/29 07:25:39;;;;;;;4.43;4.03;;;21.90;99.90;;;;;;5064126;28;20041;-75
2022/06/29 07:28:05;;;;;;;4.38;3.97;;;21.90;99.90;;;;;;5048829;28;21342;-75
2022/06/29 07:30:31;;;;;;;6.97;4.18;;;22.00;99.90;;;;;;5037916;28;20044;-75
2022/06/29 07:32:57;;;;;;;5.68;3.90;;;22.20;99.90;;;;;;5045434;28;20052;-75
2022/06/29 07:35:23;;;;;;;4.60;3.88;;;22.30;99.90;;;;;;5040340;28;20052;-75
2022/06/29 07:37:50;;;;;;;5.97;3.80;;;22.40;99.90;;;;;;5062958;28;20108;-75
2022/06/29 07:40:16;;;;;;;3.58;3.28;;;22.40;99.90;;;;;;5062223;28;20052;-75
2022/06/29 07:42:42;;;;;;;4.68;3.75;;;22.50;99.90;;;;;;5062781;28;20095;-75
2022/06/29 07:45:08;;;;;;;4.57;3.78;;;22.60;99.90;;;;;;5046136;28;20041;-75
2022/06/29 07:47:34;;;;;;;4.13;3.33;;;22.70;99.90;;;;;;5056798;28;20079;-75
2022/06/29 07:50:00;;;;;;;5.63;3.63;;;22.70;99.90;;;;;;5041146;28;20040;-74
2022/06/29 07:52:26;;;;;;;3.92;3.60;;;22.70;99.90;;;;;;5054208;28;20134;-76
2022/06/29 07:54:52;;;;;;;5.28;3.70;;;22.70;99.90;;;;;;5059937;28;20080;-76
2022/06/29 07:57:18;;;;;;;5.03;3.80;;;22.70;99.90;;;;;;5062496;28;20538;-75
2022/06/29 07:59:46;;;;;;;4.05;3.15;;;22.60;99.90;;;;;;5041925;28;20040;-75
2022/06/29 08:02:12;;;;;;;5.68;3.15;;;22.50;99.90;;;;;;5047211;28;20044;-75
2022/06/29 08:04:38;;;;;;;3.92;3.13;;;22.60;99.90;;;;;;5060573;28;20048;-75
2022/06/29 08:07:04;;;;;;;5.22;3.15;;;22.60;99.90;;;;;;5057866;28;20056;-76
2022/06/29 08:09:29;;;;;;;3.97;3.00;;;22.60;99.90;;;;;;5040783;28;20041;-76
2022/06/29 08:11:55;;;;;;;4.53;2.95;;;22.70;99.90;;;;;;5035419;28;20135;-75
2022/06/29 08:14:21;;;;;;;3.38;3.08;;;22.90;99.90;;;;;;5066609;28;20079;-73
2022/06/29 08:16:47;;;;;;;3.17;2.80;;;23.10;99.90;;;;;;5057010;28;20590;-73
2022/06/29 08:19:12;;;;;;;2.78;2.50;;;23.20;99.90;;;;;;5035679;28;20103;-73
2022/06/29 08:21:38;;;;;;;2.90;2.70;;;23.30;99.90;;;;;;5066039;28;20429;-73
2022/06/29 08:24:04;;;;;;;3.05;2.38;;;23.30;99.90;;;;;;5045870;28;20037;-74
2022/06/29 08:26:30;;;;;;;4.80;2.50;;;23.40;99.90;;;;;;5053758;28;20080;-74
2022/06/29 08:28:55;;;;;;;2.85;2.40;;;23.50;99.90;;;;;;5045051;28;20032;-72
2022/06/29 08:31:21;;;;;;;3.83;2.33;;;23.60;99.90;;;;;;5053102;28;20052;-73
2022/06/29 08:33:47;;;;;;;3.28;2.20;;;23.90;99.90;;;;;;5063803;28;20548;-73
2022/06/29 08:36:12;;;;;;;4.80;2.28;;;24.10;99.90;;;;;;5065098;28;20040;-73
2022/06/29 08:38:39;;;;;;;4.30;2.45;;;24.30;99.90;;;;;;5065767;28;20052;-72
2022/06/29 08:41:06;;;;;;;2.47;1.90;;;24.40;99.90;;;;;;5052407;28;20063;-73
2022/06/29 08:43:32;;;;;;;2.95;2.40;;;24.60;99.90;;;;;;5039436;28;20047;-73
2022/06/29 08:45:58;;;;;;;3.63;2.40;;;24.70;99.90;;;;;;5041794;28;20498;-74
2022/06/29 08:48:24;;;;;;;2.72;2.15;;;24.80;99.90;;;;;;5058381;28;20067;-74
2022/06/29 08:50:54;;;;;;;3.97;2.30;;;24.90;99.90;;;;;;5043692;28;20049;-73
2022/06/29 08:53:21;;;;;;;5.80;2.47;;;24.90;99.90;;;;;;5041272;28;20078;-73
2022/06/29 08:55:52;;;;;;;3.72;2.30;;;25.10;99.90;;;;;;5061107;28;20105;-73
2022/06/29 08:58:22;;;;;;;3.97;2.40;;;25.20;99.90;;;;;;5060628;28;20500;-74
2022/06/29 09:00:51;;;;;;;4.25;2.60;;;25.30;99.90;;;;;;5063360;28;20036;-73
2022/06/29 09:03:19;;;;;;;3.17;2.47;;;25.50;98.60;;;;;;5068434;28;20408;-73
2022/06/29 09:05:55;;;;;;;2.65;2.40;;;25.50;98.20;;;;;;5066935;28;20379;-73
2022/06/29 09:08:22;;;;;;;3.45;2.22;;;25.70;92.30;;;;;;5050103;28;20380;-74
2022/06/29 09:10:48;;;;;;;4.75;2.50;;;25.60;93.10;;;;;;5067282;28;20028;-73
2022/06/29 09:13:22;;;;;;;2.63;2.50;;;25.60;89.80;;;;;;5034213;28;20048;-73
2022/06/29 09:15:59;;;;;;;2.95;2.70;;;25.60;80.40;;;;;;5060619;28;20503;-74
2022/06/29 09:18:31;;;;;;;2.47;2.28;;;25.60;84.80;;;;;;5058653;28;20052;-73
2022/06/29 09:21:03;;;;;;;2.72;2.33;;;25.70;91.00;;;;;;5072179;28;20127;-73
2022/06/29 09:23:30;;;;;;;3.35;2.65;;;25.70;89.10;;;;;;5071991;28;20198;-73
2022/06/29 09:25:56;;;;;;;3.15;2.30;;;25.80;85.80;;;;;;5069359;28;20124;-73
2022/06/29 09:28:25;;;;;;;3.30;2.33;;;25.90;90.80;;;;;;5048229;28;20079;-73
2022/06/29 09:30:55;;;;;;;5.35;2.50;;;26.10;85.70;;;;;;5071773;28;20067;-73
2022/06/29 09:33:28;;;;;;;3.97;2.28;;;26.10;82.80;;;;;;5069894;28;20612;-72
2022/06/29 09:36:20;;;;;;;2.63;2.42;;;26.00;85.40;;;;;;5072181;28;20123;-73
2022/06/29 09:38:46;;;;;;;;;;;25.80;89.30;;;;;;5058920;28;20068;-74
2022/06/29 09:41:13;;;;;;;4.07;2.50;;;25.60;92.00;;;;;;5069260;28;19936;-73
2022/06/29 09:43:41;;;;;;;3.60;2.83;;;25.50;96.50;;;;;;5066769;28;20045;-73
2022/06/29 09:46:08;;;;;;;2.78;2.58;;;25.70;96.10;;;;;;5066004;28;20056;-73
2022/06/29 09:48:35;;;;;;;2.80;2.50;;;25.90;92.40;;;;;;5064533;28;20041;-73
2022/06/29 09:51:30;;;;;;;3.28;2.85;;;26.00;90.30;;;;;;5063382;28;20094;-74
2022/06/29 09:53:48;;;;;;;3.47;2.30;;;26.10;91.00;;;;;;5064886;28;20053;-74
2022/06/29 09:56:17;;;;;;;2.88;2.60;;;26.40;95.00;;;;;;5056679;28;20057;-74
2022/06/29 09:58:48;;;;;;;3.22;2.60;;;26.30;93.40;;;;;;5064711;28;20044;-74
2022/06/29 10:04:01;;;;;;;3.58;2.80;;;26.30;93.50;;;;;;5064708;28;20092;-74
2022/06/29 10:06:27;;;;;;;3.78;2.85;;;26.40;90.80;;;;;;5049361;28;20053;-73
2022/06/29 10:08:54;;;;;;;4.50;2.60;;;26.40;92.50;;;;;;5066569;28;20051;-73
2022/06/29 10:14:35;;;;;;;3.15;2.45;;;26.50;77.30;;;;;;5069998;28;20080;-74
2022/06/29 10:17:22;;;;;;;3.28;2.72;;;26.40;92.40;;;;;;5060297;28;20652;-74
2022/06/29 10:20:06;;;;;;;2.72;2.53;;;26.40;86.00;;;;;;5064154;28;20063;-74
2022/06/29 10:22:32;;;;;;;2.80;2.45;;;26.30;77.40;;;;;;5041045;28;20499;-73
2022/06/29 10:25:05;;;;;;;2.97;2.58;;;26.30;82.80;;;;;;5060471;28;20044;-73
2022/06/29 10:27:32;;;;;;;4.70;3.08;;;26.30;74.50;;;;;;5070152;28;20048;-74
2022/06/29 10:30:19;;;;;;;4.00;2.53;;;26.20;78.10;;;;;;5038356;28;20300;-74
2022/06/29 10:32:46;;;;;;;3.30;2.53;;;26.10;85.00;;;;;;5063572;28;20056;-74
2022/06/29 10:35:12;;;;;;;3.05;2.40;;;25.90;89.80;;;;;;5068656;28;20047;-73
2022/06/29 10:37:48;;;;;;;2.67;2.47;;;25.80;86.40;;;;;;5064966;28;20048;-74
2022/06/29 10:40:19;;;;;;;2.63;2.42;;;25.70;92.50;;;;;;5060066;28;20060;-73
2022/06/29 10:45:46;;;;;;;2.90;2.70;;;25.60;93.90;;;;;;5071470;28;20052;-74
2022/06/29 10:48:13;;;;;;;2.50;2.30;;;25.70;91.00;;;;;;5057176;28;20057;-73
2022/06/29 10:50:42;;;;;;;2.75;2.33;;;25.70;91.10;;;;;;5063465;28;20040;-73
2022/06/29 10:53:15;;;;;;;5.32;2.70;;;25.70;95.00;;;;;;5064079;28;20158;-73
2022/06/29 10:55:43;;;;;;;3.47;2.97;;;25.70;92.20;;;;;;5049757;28;20044;-73
2022/06/29 10:58:10;;;;;;;2.50;2.25;;;25.90;92.90;;;;;;5068239;28;20071;-73
2022/06/29 11:00:40;;;;;;;3.72;2.58;;;25.90;84.90;;;;;;5057082;28;20040;-73
2022/06/29 11:03:14;;;;;;;3.85;2.42;;;25.90;81.20;;;;;;5075561;28;20076;-73
2022/06/29 11:12:01;;;;;;;3.17;2.85;;;25.90;84.20;;;;;;5071473;28;20526;-71
2022/06/29 11:14:02;;;;;;;2.90;2.70;;;26.40;85.50;;;;;;5068226;28;20319;-73
2022/06/29 11:16:36;;;;;;;3.10;2.40;;;26.40;82.00;;;;;;5065710;28;20656;-73
2022/06/29 11:19:03;;;;;;;2.90;2.60;;;26.40;82.70;;;;;;5042928;28;20037;-72
2022/06/29 11:21:30;;;;;;;2.92;2.63;;;26.40;78.10;;;;;;5057914;28;20064;-73
2022/06/29 11:24:03;;;;;;;3.00;2.67;;;26.30;79.00;;;;;;5070476;28;20040;-73
2022/06/29 11:26:33;;;;;;;3.67;3.03;;;26.40;75.80;;;;;;5068545;28;20052;-73
2022/06/29 11:29:01;;;;;;;3.42;3.00;;;26.50;82.40;;;;;;5073856;28;20048;-73
2022/06/29 11:31:27;;;;;;;4.18;2.90;;;26.80;84.60;;;;;;5066782;28;20064;-73
2022/06/29 11:33:54;;;;;;;2.90;2.70;;;27.10;91.50;;;;;;5072224;28;20071;-73
2022/06/29 11:36:25;;;;;;;3.80;2.88;;;27.40;82.80;;;;;;5075082;28;20040;-74
2022/06/29 11:38:53;;;;;;;4.35;3.38;;;27.50;75.10;;;;;;5074461;28;20350;-73
2022/06/29 11:43:03;;;;;;;7.60;3.40;;;27.50;76.80;;;;;;5068743;28;20039;-74
2022/06/29 11:44:23;;;;;;;3.58;3.25;;;27.30;68.40;;;;;;5073934;28;20052;-73
2022/06/29 11:46:48;;;;;;;3.42;3.13;;;27.00;79.80;;;;;;5047167;28;20138;-73
2022/06/29 11:49:33;;;;;;;5.10;3.60;;;26.80;84.60;;;;;;5070062;28;20519;-73
2022/06/29 11:52:02;;;;;;;3.42;3.13;;;27.00;89.30;;;;;;5071624;28;20044;-73
2022/06/29 11:54:38;;;;;;;3.65;3.35;;;27.10;84.90;;;;;;5062916;28;20045;-72
2022/06/29 11:57:21;;;;;;;5.78;4.35;;;27.30;75.40;;;;;;5056955;28;20409;-74
2022/06/29 11:59:47;;;;;;;4.20;3.90;;;27.20;69.30;;;;;;5065762;28;20127;-74
2022/06/29 12:02:15;;;;;;;5.90;3.90;;;27.10;77.30;;;;;;5073852;28;20036;-74
2022/06/29 12:04:42;;;;;;;5.50;3.92;;;27.10;78.90;;;;;;5066205;28;20530;-74
2022/06/29 12:07:18;;;;;;;4.20;3.80;;;27.20;78.00;;;;;;5065581;28;20055;-74
2022/06/29 12:09:45;;;;;;;4.70;4.28;;;27.30;77.60;;;;;;5053278;28;20523;-74
2022/06/29 12:12:12;;;;;;;5.28;4.05;;;27.20;83.30;;;;;;5062793;28;20078;-74
2022/06/29 12:14:39;;;;;;;4.25;3.92;;;27.30;84.20;;;;;;5042543;28;20043;-73
2022/06/29 12:17:05;;;;;;;4.70;4.18;;;27.20;81.40;;;;;;5063548;28;20044;-74
2022/06/29 12:19:31;;;;;;;4.78;4.00;;;27.10;79.20;;;;;;5045811;28;20100;-75
2022/06/29 12:21:58;;;;;;;4.97;3.97;;;26.90;83.00;;;;;;5063502;28;20347;-72
2022/06/29 12:24:24;;;;;;;6.25;3.97;;;26.90;91.20;;;;;;5061645;28;20045;-73
2022/06/29 12:26:50;;;;;;;4.03;3.70;;;27.00;92.30;;;;;;5064019;28;20053;-73
2022/06/29 12:29:16;;;;;;;4.63;4.15;;;27.20;87.80;;;;;;5053763;28;20055;-73
2022/06/29 12:31:42;;;;;;;5.07;4.10;;;27.40;90.10;;;;;;5049678;28;20065;-73
2022/06/29 12:34:09;;;;;;;4.35;3.90;;;27.60;90.00;;;;;;5062225;28;20071;-73
2022/06/29 12:36:35;;;;;;;4.55;4.15;;;27.80;82.30;;;;;;5046791;28;20047;-73
2022/06/29 12:39:00;;;;;;;5.03;4.13;;;28.00;87.60;;;;;;5067154;28;20111;-73
2022/06/29 12:41:26;;;;;;;4.53;4.13;;;28.20;81.80;;;;;;5040918;28;20041;-73
2022/06/29 12:43:52;;;;;;;4.22;3.85;;;28.00;80.40;;;;;;5042792;28;20051;-76
2022/06/29 12:46:18;;;;;;;4.70;3.80;;;28.00;87.50;;;;;;5047324;28;20498;-74
2022/06/29 12:48:44;;;;;;;4.82;4.35;;;28.00;91.60;;;;;;5061126;28;20087;-73
2022/06/29 12:51:09;;;;;;;6.38;4.68;;;27.90;79.90;;;;;;5062189;28;20064;-73
2022/06/29 12:53:36;;;;;;;8.02;4.60;;;27.70;79.90;;;;;;5060075;28;20032;-74
2022/06/29 12:56:03;;;;;;;6.45;4.43;;;27.50;83.10;;;;;;5064453;28;20067;-73
2022/06/29 12:58:29;;;;;;;6.45;5.03;;;27.40;86.90;;;;;;5057969;28;20033;-74
2022/06/29 13:00:54;;;;;;;6.35;4.75;;;27.30;90.00;;;;;;5065419;28;20045;-73